Chitral Weather



Chitral's Current Weather

Temprature -6.05o clear sky

clear sky

Rain: 0 %

Min Temprature-6.05o
Max Temprature-6.05o
Humidity56
Wind Speed5.03 m/h
Sun Rise07:19:07
Sun Set17:29:54
Current Time: 23-Jan-2021 19:00:56
Lat/Lon: 35.8462, 71.7858




Chitral's Geo Location



Chitral's Weather Forecast

Time Overall Temp Min Temp Max Temp Humidity Wind Speed Rain
23-Jan-2021 (Sat)
20:00:00 clear sky -4.200 -6.140 -4.200 60 4.94 m/h 0 %
23:00:00 clear sky -5.110 -5.870 -5.110 55 4.91 m/h 0 %
24-Jan-2021 (Sun)
02:00:00 clear sky -5.400 -5.610 -5.400 52 5.26 m/h 0 %
05:00:00 clear sky -5.380 -5.400 -5.380 52 5.22 m/h 0 %
08:00:00 clear sky -4.570 -4.570 -4.570 53 4.74 m/h 0 %
11:00:00 clear sky 1.690 1.690 1.690 63 3.72 m/h 0 %
14:00:00 clear sky 3.750 3.750 3.750 61 3.08 m/h 0 %
17:00:00 clear sky -0.440 -0.440 -0.440 72 2.34 m/h 0 %
20:00:00 clear sky -2.550 -2.550 -2.550 61 2.66 m/h 0 %
23:00:00 clear sky -3.550 -3.550 -3.550 57 3.01 m/h 0 %
25-Jan-2021 (Mon)
02:00:00 overcast clouds -4.170 -4.170 -4.170 56 3.35 m/h 0 %
05:00:00 overcast clouds -4.910 -4.910 -4.910 54 3.45 m/h 0 %
08:00:00 scattered clouds -4.530 -4.530 -4.530 53 3.41 m/h 0 %
11:00:00 few clouds 1.640 1.640 1.640 62 3.25 m/h 0 %
14:00:00 clear sky 3.540 3.540 3.540 60 2.58 m/h 0 %
17:00:00 clear sky -0.370 -0.370 -0.370 71 2.22 m/h 0 %
20:00:00 clear sky -2.670 -2.670 -2.670 62 2.72 m/h 0 %
23:00:00 clear sky -3.720 -3.720 -3.720 60 2.92 m/h 0 %
26-Jan-2021 (Tue)
02:00:00 clear sky -4.540 -4.540 -4.540 59 3.18 m/h 0 %
05:00:00 clear sky -5.180 -5.180 -5.180 59 3.48 m/h 0 %
08:00:00 clear sky -4.850 -4.850 -4.850 60 3.41 m/h 0 %
11:00:00 clear sky 1.150 1.150 1.150 66 3.45 m/h 0 %
14:00:00 clear sky 2.960 2.960 2.960 63 2.67 m/h 0 %
17:00:00 clear sky -0.630 -0.630 -0.630 73 2.41 m/h 0 %
20:00:00 clear sky -2.850 -2.850 -2.850 65 2.83 m/h 0 %
23:00:00 clear sky -3.960 -3.960 -3.960 62 2.99 m/h 0 %
27-Jan-2021 (Wed)
02:00:00 clear sky -4.820 -4.820 -4.820 61 3.27 m/h 0 %
05:00:00 clear sky -5.510 -5.510 -5.510 57 3.47 m/h 0 %
08:00:00 clear sky -5.190 -5.190 -5.190 57 3.42 m/h 0 %
11:00:00 clear sky 0.910 0.910 0.910 66 3.5 m/h 0 %
14:00:00 clear sky 3.050 3.050 3.050 63 2.85 m/h 0 %
17:00:00 clear sky -0.610 -0.610 -0.610 72 2.68 m/h 0 %
20:00:00 clear sky -3.170 -3.170 -3.170 60 3.09 m/h 0 %
23:00:00 clear sky -4.300 -4.300 -4.300 57 3.18 m/h 0 %
28-Jan-2021 (Thu)
02:00:00 clear sky -5.100 -5.100 -5.100 55 3.37 m/h 0 %
05:00:00 clear sky -5.610 -5.610 -5.610 52 3.6 m/h 0 %
08:00:00 clear sky -5.090 -5.090 -5.090 52 3.58 m/h 0 %
11:00:00 clear sky 1.010 1.010 1.010 64 3.46 m/h 0 %
14:00:00 clear sky 3.030 3.030 3.030 62 2.94 m/h 0 %
17:00:00 clear sky -0.530 -0.530 -0.530 71 2.68 m/h 0 %

Famous Cities (60)